createdAt,value
2018-02-12T00:00:07.176Z,101732.55
2018-02-12T00:02:34.675Z,101733.02
2018-02-12T00:05:02.205Z,101736.45
2018-02-12T00:07:29.698Z,101733.88
2018-02-12T00:09:57.182Z,101737.75
2018-02-12T00:12:24.691Z,101742.91
2018-02-12T00:14:52.197Z,101736.89
2018-02-12T00:17:19.691Z,101735.20
2018-02-12T00:19:47.170Z,101736.05
2018-02-12T00:22:14.671Z,101731.35
2018-02-12T00:24:42.228Z,101730.49
2018-02-12T00:27:09.732Z,101730.03
2018-02-12T00:29:37.222Z,101734.77
2018-02-12T00:32:04.724Z,101742.94
2018-02-12T00:34:32.198Z,101735.63
2018-02-12T00:36:59.679Z,101739.53
2018-02-12T00:39:27.284Z,101740.39
2018-02-12T00:41:54.790Z,101746.02
2018-02-12T00:44:22.267Z,101750.75
2018-02-12T00:46:49.749Z,101750.75
2018-02-12T00:49:17.227Z,101742.57
2018-02-12T00:51:44.733Z,101775.73
2018-02-12T00:54:12.225Z,101791.25
2018-02-12T00:56:39.707Z,101781.96
2018-02-12T00:59:07.211Z,101770.05
2018-02-12T01:01:34.710Z,101765.85
2018-02-12T01:04:02.202Z,101769.83
2018-02-12T01:06:29.679Z,101772.91
2018-02-12T01:08:57.214Z,101767.81
2018-02-12T01:11:24.686Z,101760.98
2018-02-12T01:13:52.177Z,101761.02
2018-02-12T01:16:19.675Z,101761.50
2018-02-12T01:18:47.167Z,101760.23
2018-02-12T01:21:14.639Z,101758.97
2018-02-12T01:23:42.123Z,101760.70
2018-02-12T01:26:09.643Z,101758.14
2018-02-12T01:28:37.135Z,101765.41
2018-02-12T01:31:04.693Z,101760.27
2018-02-12T01:33:32.188Z,101757.67
2018-02-12T01:35:59.740Z,101758.95
2018-02-12T01:38:27.219Z,101761.48
2018-02-12T01:40:54.734Z,101786.80
2018-02-12T01:43:22.281Z,101763.19
2018-02-12T01:45:49.795Z,101755.89
2018-02-12T01:48:17.356Z,101754.19
2018-02-12T01:50:44.846Z,101758.94
2018-02-12T01:53:12.338Z,101755.47
2018-02-12T01:55:39.844Z,101755.05
2018-02-12T01:58:07.350Z,101747.73
2018-02-12T02:00:34.862Z,101764.91
2018-02-12T02:03:02.367Z,101767.07
2018-02-12T02:05:29.964Z,101765.75
2018-02-12T02:07:57.463Z,101758.03
2018-02-12T02:10:25.079Z,101777.77
2018-02-12T02:12:52.655Z,101765.32
2018-02-12T02:15:20.154Z,101770.88
2018-02-12T02:17:47.666Z,101769.58
2018-02-12T02:20:15.292Z,101769.98
2018-02-12T02:22:42.854Z,101767.39
2018-02-12T02:25:10.346Z,101773.39
2018-02-12T02:27:37.835Z,101775.13
2018-02-12T02:30:05.324Z,101775.09
2018-02-12T02:32:32.862Z,101776.39
2018-02-12T02:35:00.347Z,101773.36
2018-02-12T02:37:27.823Z,101778.09
2018-02-12T02:39:55.303Z,101773.32
2018-02-12T02:42:22.796Z,101772.02
2018-02-12T02:44:50.298Z,101775.41
2018-02-12T02:47:17.792Z,101776.25
2018-02-12T02:49:45.287Z,101770.22
2018-02-12T02:52:12.796Z,101776.67
2018-02-12T02:54:40.278Z,101777.51
2018-02-12T02:57:07.754Z,101777.52
2018-02-12T02:59:35.231Z,101786.95
2018-02-12T03:02:02.762Z,101768.44
2018-02-12T03:04:30.241Z,101779.63
2018-02-12T03:06:57.730Z,101779.64
2018-02-12T03:09:25.388Z,101776.66
2018-02-12T03:11:52.915Z,101775.34
2018-02-12T03:14:20.406Z,101779.64
2018-02-12T03:16:47.890Z,101782.64
2018-02-12T03:19:15.377Z,101773.19
2018-02-12T03:21:42.870Z,101775.34
2018-02-12T03:24:10.336Z,101782.20
2018-02-12T03:26:37.848Z,101776.14
2018-02-12T03:29:05.353Z,101778.69
2018-02-12T03:31:32.865Z,101781.28
2018-02-12T03:34:01.055Z,101781.28
2018-02-12T03:36:28.552Z,101780.83
2018-02-12T03:38:56.046Z,101782.95
2018-02-12T03:41:23.560Z,101778.63
2018-02-12T03:43:51.053Z,101780.75
2018-02-12T03:46:18.550Z,101780.33
2018-02-12T03:48:46.079Z,101782.91
2018-02-12T03:51:13.560Z,101784.66
2018-02-12T03:53:41.058Z,101783.36
2018-02-12T03:56:08.566Z,101773.91
2018-02-12T03:58:36.058Z,101777.75
2018-02-12T04:01:03.579Z,101773.85
2018-02-12T04:03:31.072Z,101765.25
2018-02-12T04:05:58.559Z,101775.55
2018-02-12T04:08:26.047Z,101776.41
2018-02-12T04:10:53.539Z,101780.72
2018-02-12T04:13:21.003Z,101775.98
2018-02-12T04:15:48.493Z,101777.27
2018-02-12T04:18:15.968Z,101779.40
2018-02-12T04:20:43.471Z,101778.95
2018-02-12T04:23:10.942Z,101775.48
2018-02-12T04:25:38.462Z,101775.05
2018-02-12T04:28:05.951Z,101772.47
2018-02-12T04:30:33.439Z,101774.62
2018-02-12T04:33:00.936Z,101776.34
2018-02-12T04:35:28.423Z,101767.73
2018-02-12T04:37:55.911Z,101772.04
2018-02-12T04:40:23.409Z,101771.61
2018-02-12T04:42:50.911Z,101778.52
2018-02-12T04:45:18.420Z,101767.30
2018-02-12T04:47:45.926Z,101769.00
2018-02-12T04:50:13.428Z,101773.30
2018-02-12T04:52:40.902Z,101771.16
2018-02-12T04:55:08.444Z,101777.17
2018-02-12T04:57:35.927Z,101772.04
2018-02-12T05:00:03.468Z,101774.62
2018-02-12T05:02:30.962Z,101772.91
2018-02-12T05:04:58.483Z,101778.92
2018-02-12T05:07:25.968Z,101778.03
2018-02-12T05:09:53.470Z,101773.30
2018-02-12T05:12:21.012Z,101787.91
2018-02-12T05:14:48.518Z,101777.96
2018-02-12T05:17:15.990Z,101787.83
2018-02-12T05:19:43.474Z,101784.83
2018-02-12T05:22:10.957Z,101784.83
2018-02-12T05:24:38.446Z,101786.55
2018-02-12T05:27:05.959Z,101787.84
2018-02-12T05:29:33.452Z,101789.98
2018-02-12T05:32:00.940Z,101790.44
2018-02-12T05:34:28.419Z,101795.17
2018-02-12T05:36:55.915Z,101789.61
2018-02-12T05:39:23.416Z,101789.17
2018-02-12T05:41:50.891Z,101789.17
2018-02-12T05:44:18.382Z,101787.91
2018-02-12T05:46:45.868Z,101779.73
2018-02-12T05:49:13.364Z,101780.61
2018-02-12T05:51:40.863Z,101784.09
2018-02-12T05:54:08.357Z,101778.03
2018-02-12T05:56:35.850Z,101779.76
2018-02-12T05:59:03.346Z,101787.50
2018-02-12T06:01:30.862Z,101780.16
2018-02-12T06:03:58.379Z,101779.30
2018-02-12T06:06:25.875Z,101772.85
2018-02-12T06:08:53.369Z,101771.53
2018-02-12T06:11:20.852Z,101769.36
2018-02-12T06:13:48.371Z,101771.94
2018-02-12T06:16:15.872Z,101779.66
2018-02-12T06:18:43.398Z,101769.30
2018-02-12T06:21:10.867Z,101767.59
2018-02-12T06:23:38.351Z,101771.83
2018-02-12T06:26:05.836Z,101772.27
2018-02-12T06:28:33.315Z,101775.25
2018-02-12T06:31:00.832Z,101772.27
2018-02-12T06:33:28.462Z,101780.88
2018-02-12T06:35:55.935Z,101773.55
2018-02-12T06:38:23.418Z,101773.13
2018-02-12T06:40:50.904Z,101781.30
2018-02-12T06:43:18.401Z,101771.38
2018-02-12T06:45:45.894Z,101779.52
2018-02-12T06:48:13.371Z,101780.39
2018-02-12T06:50:40.878Z,101776.94
2018-02-12T06:53:08.358Z,101774.79
2018-02-12T06:55:35.846Z,101776.11
2018-02-12T06:58:03.339Z,101780.88
2018-02-12T07:00:30.848Z,101774.02
2018-02-12T07:02:58.347Z,101769.31
2018-02-12T07:05:25.887Z,101771.89
2018-02-12T07:07:53.381Z,101775.36
2018-02-12T07:10:20.871Z,101768.95
2018-02-12T07:12:48.408Z,101773.72
2018-02-12T07:15:15.939Z,101782.34
2018-02-12T07:17:43.440Z,101784.95
2018-02-12T07:20:10.922Z,101781.07
2018-02-12T07:22:38.424Z,101784.54
2018-02-12T07:25:05.926Z,101793.59
2018-02-12T07:27:33.411Z,101787.14
2018-02-12T07:30:00.886Z,101794.88
2018-02-12T07:32:28.386Z,101793.19
2018-02-12T07:34:55.876Z,101802.22
2018-02-12T07:37:23.392Z,101809.10
2018-02-12T07:39:50.908Z,101797.06
2018-02-12T07:42:18.396Z,101805.66
2018-02-12T07:44:45.926Z,101798.78
2018-02-12T07:47:13.430Z,101801.80
2018-02-12T07:49:40.939Z,101798.78
2018-02-12T07:52:08.444Z,101799.20
2018-02-12T07:54:35.970Z,101801.36
2018-02-12T07:57:03.479Z,101804.80
2018-02-12T07:59:30.960Z,101805.23
2018-02-12T08:01:58.478Z,101807.38
2018-02-12T08:04:26.187Z,101805.64
2018-02-12T08:06:53.691Z,101811.20
2018-02-12T08:09:21.190Z,101809.06
2018-02-12T08:11:48.703Z,101804.33
2018-02-12T08:14:16.177Z,101815.08
2018-02-12T08:16:43.667Z,101809.95
2018-02-12T08:19:11.182Z,101809.09
2018-02-12T08:24:49.449Z,101812.95
2018-02-12T08:27:16.985Z,101807.77
2018-02-12T08:29:44.490Z,101813.79
2018-02-12T08:32:11.996Z,101811.22
2018-02-12T08:34:39.499Z,101807.31
2018-02-12T08:37:06.998Z,101812.05
2018-02-12T08:39:34.503Z,101808.61
2018-02-12T08:42:01.999Z,101808.61
2018-02-12T08:44:29.521Z,101806.02
2018-02-12T08:46:57.030Z,101809.44
2018-02-12T08:49:24.559Z,101808.16
2018-02-12T08:51:52.088Z,101809.39
2018-02-12T08:54:19.586Z,101814.11
2018-02-12T08:56:47.078Z,101822.20
2018-02-12T08:59:14.631Z,101820.44
2018-02-12T09:01:42.189Z,101816.48
2018-02-12T09:04:09.692Z,101812.48
2018-02-12T09:06:37.191Z,101811.08
2018-02-12T09:09:04.691Z,101813.48
2018-02-12T09:11:32.180Z,101820.25
2018-02-12T09:13:59.671Z,101830.95
2018-02-12T09:16:27.159Z,101830.09
2018-02-12T09:18:54.662Z,101825.85
2018-02-12T09:21:22.185Z,101818.12
2018-02-12T09:23:49.679Z,101822.50
2018-02-12T09:26:17.195Z,101825.08
2018-02-12T09:28:44.768Z,101817.73
2018-02-12T09:31:12.295Z,101824.59
2018-02-12T09:33:39.828Z,101831.45
2018-02-12T09:36:07.327Z,101825.82
2018-02-12T09:38:34.881Z,101830.92
2018-02-12T09:41:02.359Z,101830.46
2018-02-12T09:43:29.924Z,101824.89
2018-02-12T09:45:57.652Z,101826.19
2018-02-12T09:48:25.151Z,101830.53
2018-02-12T09:50:52.776Z,101831.91
2018-02-12T09:53:20.267Z,101844.00
2018-02-12T09:55:47.809Z,101844.52
2018-02-12T09:58:15.333Z,101833.58
2018-02-12T10:00:42.836Z,101836.70
2018-02-12T10:03:10.368Z,101862.30
2018-02-12T10:05:37.863Z,101859.77
2018-02-12T10:08:05.354Z,101862.89
2018-02-12T10:10:32.843Z,101856.41
2018-02-12T10:13:00.363Z,101854.21
2018-02-12T10:15:27.895Z,101861.48
2018-02-12T10:17:55.400Z,101853.69
2018-02-12T10:20:22.862Z,101837.75
2018-02-12T10:22:50.494Z,101840.31
2018-02-12T10:25:18.028Z,101839.45
2018-02-12T10:27:45.576Z,101839.48
2018-02-12T10:30:13.080Z,101838.59
2018-02-12T10:32:40.584Z,101841.58
2018-02-12T10:35:08.078Z,101843.73
2018-02-12T10:37:35.623Z,101841.53
2018-02-12T10:40:03.149Z,101837.16
2018-02-12T10:42:30.630Z,101842.64
2018-02-12T10:44:59.057Z,101839.52
2018-02-12T10:47:26.534Z,101836.43
2018-02-12T10:49:54.032Z,101832.46
2018-02-12T10:52:21.547Z,101829.82
2018-02-12T10:54:49.030Z,101831.05
2018-02-12T10:57:16.514Z,101833.14
2018-02-12T10:59:44.014Z,101835.70
2018-02-12T11:02:11.503Z,101833.05
2018-02-12T11:04:39.051Z,101829.94
2018-02-12T11:07:06.561Z,101828.57
2018-02-12T11:09:34.058Z,101825.02
2018-02-12T11:12:01.565Z,101816.80
2018-02-12T11:14:29.075Z,101815.86
2018-02-12T11:16:56.550Z,101810.65
2018-02-12T11:19:24.051Z,101807.98
2018-02-12T11:21:51.573Z,101797.16
2018-02-12T11:24:19.076Z,101797.95
2018-02-12T11:26:46.576Z,101796.11
2018-02-12T11:29:14.085Z,101795.59
2018-02-12T11:31:41.588Z,101789.55
2018-02-12T11:34:09.124Z,101787.83
2018-02-12T11:36:36.622Z,101789.55
2018-02-12T11:39:04.120Z,101792.49
2018-02-12T11:41:31.628Z,101793.66
2018-02-12T11:43:59.134Z,101790.64
2018-02-12T11:46:26.620Z,101790.52
2018-02-12T11:48:54.155Z,101783.05
2018-02-12T11:51:21.771Z,101787.56
2018-02-12T11:53:49.254Z,101767.18
2018-02-12T11:56:16.884Z,101766.56
2018-02-12T11:58:44.386Z,101761.61
2018-02-12T12:01:11.878Z,101751.48
2018-02-12T12:03:39.675Z,101743.59
2018-02-12T12:06:07.157Z,101747.91
2018-02-12T12:08:34.663Z,101750.98
2018-02-12T12:11:02.175Z,101744.18
2018-02-12T12:13:29.662Z,101743.05
2018-02-12T12:15:57.209Z,101731.87
2018-02-12T12:18:24.695Z,101735.37
2018-02-12T12:20:52.191Z,101730.95
2018-02-12T12:23:19.710Z,101726.42
2018-02-12T12:25:47.292Z,101717.89
2018-02-12T12:28:14.783Z,101711.63
2018-02-12T12:30:42.276Z,101720.25
2018-02-12T12:33:09.893Z,101707.29
2018-02-12T12:35:37.374Z,101699.16
2018-02-12T12:38:04.890Z,101715.25
2018-02-12T12:40:32.394Z,101722.48
2018-02-12T12:42:59.878Z,101720.80
2018-02-12T12:45:27.470Z,101718.84
2018-02-12T12:47:54.954Z,101719.99
2018-02-12T12:50:22.459Z,101712.23
2018-02-12T12:52:49.942Z,101705.22
2018-02-12T12:55:17.460Z,101698.31
2018-02-12T12:57:44.995Z,101689.48
2018-02-12T13:00:12.494Z,101684.37
2018-02-12T13:02:40.102Z,101676.33
2018-02-12T13:05:07.610Z,101669.67
2018-02-12T13:07:35.098Z,101671.66
2018-02-12T13:10:02.590Z,101670.19
2018-02-12T13:12:30.102Z,101655.70
2018-02-12T13:14:57.587Z,101653.68
2018-02-12T13:17:25.081Z,101646.80
2018-02-12T13:19:52.567Z,101648.58
2018-02-12T13:22:20.060Z,101647.39
2018-02-12T13:24:47.558Z,101644.00
2018-02-12T13:27:15.059Z,101641.52
2018-02-12T13:29:42.538Z,101646.52
2018-02-12T13:32:10.054Z,101629.42
2018-02-12T13:34:37.530Z,101634.38
2018-02-12T13:37:05.014Z,101620.17
2018-02-12T13:39:32.522Z,101622.12
2018-02-12T13:42:00.095Z,101617.38
2018-02-12T13:44:27.591Z,101604.41
2018-02-12T13:46:55.109Z,101610.97
2018-02-12T13:49:22.777Z,101602.48
2018-02-12T13:51:50.267Z,101596.28
2018-02-12T13:54:17.753Z,101590.80
2018-02-12T13:56:45.251Z,101591.20
2018-02-12T13:59:12.739Z,101588.70
2018-02-12T14:01:40.263Z,101578.83
2018-02-12T14:04:07.746Z,101578.59
2018-02-12T14:06:35.246Z,101572.06
2018-02-12T14:09:02.734Z,101567.32
2018-02-12T14:11:30.220Z,101559.35
2018-02-12T14:13:57.724Z,101551.30
2018-02-12T14:16:25.205Z,101554.27
2018-02-12T14:18:52.702Z,101551.33
2018-02-12T14:21:20.196Z,101550.67
2018-02-12T14:23:47.679Z,101544.19
2018-02-12T14:26:15.162Z,101552.44
2018-02-12T14:28:42.651Z,101537.60
2018-02-12T14:31:10.155Z,101540.55
2018-02-12T14:33:37.650Z,101530.75
2018-02-12T14:36:05.170Z,101524.95
2018-02-12T14:38:32.666Z,101522.14
2018-02-12T14:41:00.177Z,101516.69
2018-02-12T14:43:27.688Z,101517.43
2018-02-12T14:45:55.194Z,101505.48
2018-02-12T14:48:22.684Z,101502.73
2018-02-12T14:50:50.196Z,101497.78
2018-02-12T14:53:17.707Z,101488.99
2018-02-12T14:55:45.194Z,101491.73
2018-02-12T14:58:12.696Z,101482.02
2018-02-12T15:00:40.191Z,101494.70
2018-02-12T15:03:07.683Z,101493.75
2018-02-12T15:05:35.166Z,101484.93
2018-02-12T15:08:02.663Z,101479.72
2018-02-12T15:10:30.186Z,101489.39
2018-02-12T15:12:57.667Z,101484.40
2018-02-12T15:15:25.199Z,101480.07
2018-02-12T15:17:52.689Z,101482.52
2018-02-12T15:20:20.195Z,101488.36
2018-02-12T15:22:47.671Z,101486.02
2018-02-12T15:25:15.192Z,101477.83
2018-02-12T15:27:42.691Z,101461.72
2018-02-12T15:30:10.174Z,101458.54
2018-02-12T15:32:37.667Z,101459.41
2018-02-12T15:35:05.155Z,101456.87
2018-02-12T15:37:33.789Z,101453.54
2018-02-12T15:40:01.270Z,101447.37
2018-02-12T15:42:28.823Z,101446.81
2018-02-12T15:44:56.428Z,101431.48
2018-02-12T15:47:24.035Z,101425.03
2018-02-12T15:49:51.582Z,101421.56
2018-02-12T15:52:19.073Z,101408.22
2018-02-12T15:54:46.604Z,101409.66
2018-02-12T15:57:14.301Z,101410.02
2018-02-12T15:59:41.775Z,101408.58
2018-02-12T16:02:09.282Z,101398.84
2018-02-12T16:04:40.399Z,101400.23
2018-02-12T16:07:07.901Z,101401.16
2018-02-12T16:09:35.505Z,101395.80
2018-02-12T16:12:02.994Z,101394.58
2018-02-12T16:14:30.491Z,101384.84
2018-02-12T16:16:57.994Z,101387.97
2018-02-12T16:19:25.631Z,101385.04
2018-02-12T16:21:53.135Z,101379.82
2018-02-12T16:24:20.622Z,101374.10
2018-02-12T16:26:48.110Z,101373.60
2018-02-12T16:29:15.730Z,101369.98
2018-02-12T16:31:43.236Z,101366.67
2018-02-12T16:34:10.784Z,101358.86
2018-02-12T16:36:38.264Z,101361.12
2018-02-12T16:39:05.796Z,101363.58
2018-02-12T16:41:33.358Z,101359.95
2018-02-12T16:44:00.955Z,101376.53
2018-02-12T16:46:28.434Z,101347.41
2018-02-12T16:48:55.967Z,101350.54
2018-02-12T16:51:23.451Z,101340.41
2018-02-12T16:53:50.947Z,101333.77
2018-02-12T16:56:18.478Z,101334.44
2018-02-12T16:58:45.968Z,101323.48
2018-02-12T17:01:14.311Z,101322.48
2018-02-12T17:03:41.916Z,101316.28
2018-02-12T17:06:09.386Z,101313.05
2018-02-12T17:08:36.891Z,101307.34
2018-02-12T17:11:04.403Z,101300.70
2018-02-12T17:13:31.890Z,101303.51
2018-02-12T17:15:59.394Z,101299.34
2018-02-12T17:18:26.892Z,101290.05
2018-02-12T17:20:54.425Z,101286.83
2018-02-12T17:23:21.907Z,101287.91
2018-02-12T17:25:49.395Z,101285.88
2018-02-12T17:28:16.895Z,101282.59
2018-02-12T17:30:44.448Z,101283.17
2018-02-12T17:33:11.927Z,101273.00
2018-02-12T17:35:39.418Z,101282.62
2018-02-12T17:38:06.953Z,101276.31
2018-02-12T17:40:34.438Z,101274.70
2018-02-12T17:43:01.922Z,101265.38
2018-02-12T17:45:29.402Z,101264.21
2018-02-12T17:47:56.882Z,101256.58
2018-02-12T17:50:24.355Z,101254.58
2018-02-12T17:52:51.842Z,101251.25
2018-02-12T17:55:19.348Z,101247.48
2018-02-12T17:57:46.851Z,101236.40
2018-02-12T18:00:14.346Z,101236.47
2018-02-12T18:02:41.880Z,101236.13
2018-02-12T18:05:09.355Z,101235.34
2018-02-12T18:07:36.858Z,101234.97
2018-02-12T18:10:04.356Z,101232.48
2018-02-12T18:12:31.849Z,101229.53
2018-02-12T18:14:59.327Z,101228.29
2018-02-12T18:17:26.814Z,101224.89
2018-02-12T18:19:54.291Z,101220.21
2018-02-12T18:22:21.787Z,101215.91
2018-02-12T18:24:49.272Z,101208.17
2018-02-12T18:27:16.778Z,101209.51
2018-02-12T18:29:44.266Z,101202.66
2018-02-12T18:32:11.759Z,101198.80
2018-02-12T18:34:39.337Z,101198.81
2018-02-12T18:37:06.863Z,101188.95
2018-02-12T18:39:34.407Z,101192.89
2018-02-12T18:42:01.879Z,101188.20
2018-02-12T18:44:29.393Z,101186.49
2018-02-12T18:46:56.866Z,101179.66
2018-02-12T18:49:24.356Z,101181.05
2018-02-12T18:51:51.864Z,101171.63
2018-02-12T18:54:19.342Z,101169.10
2018-02-12T18:56:46.822Z,101161.41
2018-02-12T18:59:14.318Z,101156.30
2018-02-12T19:01:41.799Z,101159.37
2018-02-12T19:04:09.294Z,101154.65
2018-02-12T19:06:36.774Z,101145.66
2018-02-12T19:09:04.270Z,101140.55
2018-02-12T19:11:31.738Z,101133.67
2018-02-12T19:13:59.212Z,101131.56
2018-02-12T19:16:26.702Z,101123.83
2018-02-12T19:18:54.190Z,101124.73
2018-02-12T19:21:21.662Z,101115.75
2018-02-12T19:23:49.140Z,101117.48
2018-02-12T19:26:16.626Z,101105.88
2018-02-12T19:28:44.113Z,101097.75
2018-02-12T19:31:11.593Z,101098.66
2018-02-12T19:33:39.087Z,101099.09
2018-02-12T19:36:06.559Z,101097.42
2018-02-12T19:38:34.039Z,101084.95
2018-02-12T19:41:01.515Z,101081.56
2018-02-12T19:43:29.003Z,101079.42
2018-02-12T19:45:56.496Z,101075.16
2018-02-12T19:48:24.023Z,101063.14
2018-02-12T19:50:51.619Z,101061.04
2018-02-12T19:53:19.115Z,101061.09
2018-02-12T19:55:46.653Z,101058.09
2018-02-12T19:58:14.131Z,101048.25
2018-02-12T20:00:41.642Z,101041.41
2018-02-12T20:03:09.211Z,101030.25
2018-02-12T20:05:36.705Z,101030.30
2018-02-12T20:08:04.231Z,101023.86
2018-02-12T20:10:31.788Z,101015.31
2018-02-12T20:12:59.341Z,101002.04
2018-02-12T20:15:26.865Z,101000.37
2018-02-12T20:17:54.354Z,100990.97
2018-02-12T20:20:21.899Z,100982.38
2018-02-12T20:22:49.410Z,100972.53
2018-02-12T20:25:16.898Z,100969.97
2018-02-12T20:27:44.399Z,100963.95
2018-02-12T20:30:11.971Z,100958.84
2018-02-12T20:32:39.490Z,100958.38
2018-02-12T20:35:07.032Z,100947.66
2018-02-12T20:37:34.542Z,100932.16
2018-02-12T20:40:02.031Z,100935.16
2018-02-12T20:42:29.552Z,100918.40
2018-02-12T20:44:57.136Z,100921.41
2018-02-12T20:47:24.652Z,100906.36
2018-02-12T20:49:52.182Z,100904.27
2018-02-12T20:52:19.718Z,100890.47
2018-02-12T20:54:47.239Z,100895.62
2018-02-12T20:57:14.786Z,100891.76
2018-02-12T20:59:42.276Z,100890.47
2018-02-12T21:02:09.763Z,100878.42
2018-02-12T21:04:37.257Z,100871.97
2018-02-12T21:07:04.773Z,100863.34
2018-02-12T21:09:32.278Z,100853.92
2018-02-12T21:11:59.816Z,100841.47
2018-02-12T21:14:27.326Z,100834.16
2018-02-12T21:16:54.830Z,100827.67
2018-02-12T21:19:22.342Z,100825.94
2018-02-12T21:21:49.830Z,100812.61
2018-02-12T21:24:17.326Z,100807.88
2018-02-12T21:26:44.840Z,100804.02
2018-02-12T21:29:12.330Z,100805.75
2018-02-12T21:31:39.819Z,100795.53
2018-02-12T21:34:07.356Z,100790.02
2018-02-12T21:36:34.889Z,100789.66
2018-02-12T21:39:02.451Z,100782.42
2018-02-12T21:41:29.915Z,100782.52
2018-02-12T21:43:57.439Z,100773.57
2018-02-12T21:46:24.933Z,100765.00
2018-02-12T21:48:52.472Z,100764.20
2018-02-12T21:51:19.966Z,100759.10
2018-02-12T21:53:47.455Z,100747.55
2018-02-12T21:56:14.962Z,100733.81
2018-02-12T21:58:42.437Z,100734.23
2018-02-12T22:01:10.017Z,100728.58
2018-02-12T22:03:37.512Z,100724.59
2018-02-12T22:06:04.994Z,100715.01
2018-02-12T22:08:32.484Z,100705.87
2018-02-12T22:10:59.983Z,100693.33
2018-02-12T22:13:27.482Z,100688.06
2018-02-12T22:15:54.962Z,100683.74
2018-02-12T22:18:22.454Z,100678.95
2018-02-12T22:20:49.954Z,100670.34
2018-02-12T22:23:17.434Z,100664.72
2018-02-12T22:25:44.928Z,100664.72
2018-02-12T22:28:12.419Z,100660.41
2018-02-12T22:30:39.902Z,100650.89
2018-02-12T22:33:07.366Z,100641.42
2018-02-12T22:35:34.864Z,100638.36
2018-02-12T22:38:02.346Z,100626.32
2018-02-12T22:40:29.842Z,100625.45
2018-02-12T22:42:57.335Z,100612.07
2018-02-12T22:45:24.818Z,100609.05
2018-02-12T22:47:52.295Z,100601.24
2018-02-12T22:50:19.794Z,100599.88
2018-02-12T22:52:47.278Z,100601.59
2018-02-12T22:55:14.771Z,100586.06
2018-02-12T22:57:42.274Z,100579.16
2018-02-12T23:00:09.746Z,100567.92
2018-02-12T23:02:37.224Z,100555.40
2018-02-12T23:05:04.715Z,100552.80
2018-02-12T23:07:32.294Z,100544.13
2018-02-12T23:09:59.787Z,100536.82
2018-02-12T23:12:27.279Z,100534.17
2018-02-12T23:14:54.765Z,100524.67
2018-02-12T23:17:22.255Z,100523.39
2018-02-12T23:19:49.754Z,100513.52
2018-02-12T23:22:17.237Z,100508.36
2018-02-12T23:24:44.766Z,100504.51
2018-02-12T23:27:12.234Z,100497.63
2018-02-12T23:29:39.718Z,100492.90
2018-02-12T23:32:07.217Z,100483.44
2018-02-12T23:34:35.638Z,100482.49
2018-02-12T23:37:03.178Z,100463.48
2018-02-12T23:39:30.690Z,100453.09
2018-02-12T23:41:58.233Z,100440.97
2018-02-12T23:44:25.742Z,100449.06
2018-02-12T23:46:53.344Z,100444.66
2018-02-12T23:49:20.827Z,100439.36
2018-02-12T23:51:48.547Z,100433.25
2018-02-12T23:54:24.866Z,100413.37
2018-02-12T23:56:52.339Z,100414.13
2018-02-12T23:59:20.193Z,100398.83
